Gilbues, Brazil
Current Conditions -  °F | °C
As of 9:00 PM on Tuesday 21 Oct 2014 (Local Time) from SBPJ Reporting Station
Thunderstorm Thunderstorm  
Wind Chill: 82°   Ceiling: 7000
Heat Index: 85°   Visibility: 5mi
Dew Point: 68°   Wind: 14mph
Humidity: 62%   Direction: 80°E
Pressure: NA   Gusts: NA
Location:  9.83°S, 45.34°W
Report Text: SBPJ 220000Z 08012KT 8000 -TSRA SCT020 FEW030CB BKN070 28/20 Q1012
Loading
Personal Weather Stations






























Interactive Weather Map
Tropical Storm Tracking
New forecast layout! Learn more

10-Day Weather Forecast

Advertisements
Track Severe Weather on mobile